Date,TemperatureHighF,TemperatureAvgF,TemperatureLowF,DewpointHighF,DewpointAvgF,DewpointLowF,HumidityHigh,HumidityAvg,HumidityLow,PressureMaxIn,PressureMinIn,WindSpeedMaxMPH,WindSpeedAvgMPH,GustSpeedMaxMPH,PrecipitationSumIn
2013-5-1,86.0,73.9,60.0,55.0,49.4,39.0,68,45,19,30.12,29.88,5,2,11,0.00
2013-5-2,59.0,49.6,41.0,46.0,41.2,37.0,85,73,60,30.25,30.11,8,2,16,0.18
2013-5-3,53.0,43.0,38.0,50.0,39.5,34.0,89,87,85,30.69,29.84,2,0,8,1.73
2013-5-4,70.0,59.1,52.0,60.0,53.8,49.0,89,83,61,30.03,29.85,5,1,13,1.02
2013-5-5,76.0,61.8,48.0,58.0,49.7,40.0,90,68,32,30.03,29.93,3,0,8,0.57
2013-5-6,78.0,64.3,51.0,53.0,48.7,42.0,87,61,28,30.05,29.96,2,0,8,0.00
2013-5-7,81.0,66.8,51.0,53.0,45.5,34.0,88,53,19,30.04,29.96,2,0,6,0.00
2013-5-8,82.0,67.0,50.0,57.0,48.3,39.0,88,57,22,30.02,29.94,3,0,11,0.00
2013-5-9,72.0,63.6,60.0,61.0,57.9,55.0,88,82,61,29.95,29.78,3,0,11,0.46
2013-5-10,61.0,52.9,48.0,58.0,46.4,-99.9,89,83,76,30.00,29.78,3,0,8,0.14
2013-5-11,59.0,51.0,44.0,50.0,33.7,-99.9,89,57,29,30.12,29.91,12,4,26,0.02
2013-5-12,59.0,48.4,39.0,34.0,27.0,18.0,77,46,20,30.19,30.09,8,3,20,0.01
2013-5-13,72.0,54.6,34.0,42.0,33.1,23.0,88,51,19,30.18,29.93,4,1,13,0.00
2013-5-14,95.0,75.0,58.0,59.0,50.2,37.0,65,44,22,29.93,29.62,5,2,14,0.00
2013-5-15,82.0,74.6,59.0,59.0,50.0,42.0,78,43,25,29.85,29.67,7,1,20,0.00
2013-5-16,87.0,64.0,54.0,57.0,31.6,-99.9,86,56,16,29.94,29.83,2,0,6,0.00
2013-5-17,82.0,70.4,61.0,61.0,53.0,-99.9,86,63,38,29.97,29.88,4,1,8,0.00
2013-5-18,83.0,71.8,61.0,65.0,60.5,57.0,89,70,44,30.01,29.88,4,0,10,0.00
2013-5-19,89.0,73.7,64.0,69.0,63.0,57.0,84,71,48,29.90,29.63,7,2,25,0.33
2013-5-20,83.0,75.5,64.0,63.0,59.5,57.0,81,59,42,29.77,29.57,7,2,25,0.42
2013-5-21,79.0,70.0,62.0,61.0,57.6,55.0,85,66,45,29.69,29.61,6,2,13,0.06
2013-5-22,68.0,62.7,59.0,56.0,53.9,51.0,88,74,55,29.78,29.63,7,2,13,0.01
2013-5-23,69.0,59.6,50.0,56.0,50.6,43.0,88,74,48,30.25,29.78,4,1,10,0.09
2013-5-24,70.0,55.6,42.0,45.0,39.0,31.0,88,59,24,30.44,30.25,3,0,6,0.05
2013-5-25,57.0,50.8,47.0,48.0,44.7,41.0,88,80,57,30.39,30.22,4,0,9,0.82
2013-5-26,59.0,53.7,49.0,56.0,50.1,45.0,89,87,83,30.24,30.01,5,1,9,0.98
2013-5-27,72.0,63.8,58.0,65.0,59.8,55.0,90,87,76,30.02,29.77,4,1,8,1.12
2013-5-28,78.0,69.8,64.0,71.0,64.5,60.0,89,83,73,29.85,29.66,8,1,23,0.63
2013-5-29,85.0,73.2,62.0,70.0,63.9,57.0,88,74,55,29.89,29.73,4,1,20,0.56
2013-5-30,83.0,71.9,63.0,69.0,63.5,58.0,88,76,60,29.85,29.67,8,2,27,0.69
2013-5-31,75.0,68.0,62.0,66.0,61.5,57.0,89,80,64,29.81,29.66,6,1,15,0.49